createdAt,value
2018-10-06T00:00:21.350Z,68.99
2018-10-06T00:02:49.235Z,69.86
2018-10-06T00:05:17.122Z,69.55
2018-10-06T00:07:45.148Z,70.04
2018-10-06T00:10:13.092Z,69.62
2018-10-06T00:12:40.976Z,69.32
2018-10-06T00:15:09.443Z,69.22
2018-10-06T00:17:37.627Z,69.14
2018-10-06T00:20:06.451Z,69.59
2018-10-06T00:22:34.297Z,70.03
2018-10-06T00:25:02.284Z,69.11
2018-10-06T00:27:30.104Z,69.98
2018-10-06T00:29:57.846Z,69.81
2018-10-06T00:32:26.348Z,69.95
2018-10-06T00:34:54.193Z,69.25
2018-10-06T00:37:22.047Z,69.63
2018-10-06T00:39:49.866Z,69.84
2018-10-06T00:42:18.036Z,69.65
2018-10-06T00:44:46.004Z,69.95
2018-10-06T00:47:13.963Z,69.93
2018-10-06T00:49:41.734Z,69.84
2018-10-06T00:52:09.487Z,70.36
2018-10-06T00:54:37.371Z,70.29
2018-10-06T00:57:05.235Z,69.74
2018-10-06T00:59:33.158Z,70.05
2018-10-06T01:02:01.316Z,70.50
2018-10-06T01:04:29.089Z,70.32
2018-10-06T01:06:56.939Z,70.21
2018-10-06T01:09:24.875Z,69.81
2018-10-06T01:11:52.676Z,70.48
2018-10-06T01:14:20.505Z,70.11
2018-10-06T01:16:48.279Z,70.46
2018-10-06T01:19:16.151Z,70.00
2018-10-06T01:21:44.036Z,70.20
2018-10-06T01:24:11.839Z,70.19
2018-10-06T01:26:39.611Z,69.96
2018-10-06T01:29:07.487Z,70.66
2018-10-06T01:31:35.381Z,70.63
2018-10-06T01:34:03.544Z,70.15
2018-10-06T01:36:31.370Z,70.72
2018-10-06T01:38:59.371Z,69.86
2018-10-06T01:41:28.038Z,70.25
2018-10-06T01:43:55.879Z,70.16
2018-10-06T01:46:23.720Z,70.39
2018-10-06T01:48:51.687Z,70.43
2018-10-06T01:51:19.555Z,70.23
2018-10-06T01:53:47.423Z,70.79
2018-10-06T01:56:15.244Z,70.23
2018-10-06T01:58:43.119Z,70.70
2018-10-06T02:04:24.603Z,70.88
2018-10-06T02:06:53.754Z,70.96
2018-10-06T02:09:21.685Z,70.68
2018-10-06T02:11:49.704Z,71.00
2018-10-06T02:14:17.591Z,70.67
2018-10-06T02:16:45.495Z,71.46
2018-10-06T02:19:13.285Z,71.27
2018-10-06T02:21:41.087Z,70.69
2018-10-06T02:24:08.923Z,71.18
2018-10-06T02:26:36.880Z,71.23
2018-10-06T02:29:04.691Z,71.10
2018-10-06T02:31:32.554Z,70.77
2018-10-06T02:34:05.980Z,70.77
2018-10-06T02:36:33.777Z,70.85
2018-10-06T02:39:01.676Z,71.20
2018-10-06T02:41:29.588Z,71.75
2018-10-06T02:43:57.359Z,71.57
2018-10-06T02:46:25.467Z,71.72
2018-10-06T02:48:53.349Z,71.80
2018-10-06T02:51:21.227Z,71.58
2018-10-06T02:53:49.195Z,71.40
2018-10-06T02:56:17.086Z,72.05
2018-10-06T02:58:44.939Z,71.79
2018-10-06T03:01:12.784Z,72.03
2018-10-06T03:03:40.602Z,71.65
2018-10-06T03:12:23.296Z,72.09
2018-10-06T03:14:51.167Z,71.62
2018-10-06T03:17:18.935Z,72.16
2018-10-06T03:19:46.766Z,72.38
2018-10-06T03:22:14.740Z,72.37
2018-10-06T03:24:42.555Z,72.29
2018-10-06T03:27:10.392Z,72.17
2018-10-06T03:29:38.550Z,72.55
2018-10-06T03:32:06.421Z,72.46
2018-10-06T03:34:34.302Z,71.86
2018-10-06T03:37:02.271Z,71.83
2018-10-06T03:39:30.138Z,72.04
2018-10-06T03:41:57.915Z,72.94
2018-10-06T03:44:25.722Z,73.05
2018-10-06T03:46:53.515Z,72.89
2018-10-06T03:49:21.355Z,72.44
2018-10-06T03:51:49.142Z,72.86
2018-10-06T03:54:16.924Z,73.10
2018-10-06T03:56:44.717Z,72.20
2018-10-06T03:59:13.170Z,72.32
2018-10-06T04:01:41.111Z,72.54
2018-10-06T04:04:08.912Z,72.90
2018-10-06T04:06:36.759Z,72.17
2018-10-06T04:09:07.447Z,72.33
2018-10-06T04:11:36.017Z,72.37
2018-10-06T04:14:04.327Z,72.27
2018-10-06T04:16:32.131Z,71.69
2018-10-06T04:19:00.382Z,72.21
2018-10-06T04:21:32.915Z,72.26
2018-10-06T04:24:00.804Z,71.92
2018-10-06T04:26:31.578Z,72.72
2018-10-06T04:28:59.353Z,72.21
2018-10-06T04:31:27.633Z,72.17
2018-10-06T04:33:55.425Z,72.03
2018-10-06T04:36:23.283Z,72.17
2018-10-06T04:38:51.135Z,72.49
2018-10-06T04:41:25.239Z,72.21
2018-10-06T04:43:53.030Z,72.80
2018-10-06T04:46:20.857Z,73.46
2018-10-06T04:48:49.015Z,73.54
2018-10-06T04:51:16.829Z,73.40
2018-10-06T04:53:44.695Z,72.86
2018-10-06T04:56:12.524Z,73.21
2018-10-06T04:58:40.314Z,73.07
2018-10-06T05:01:08.110Z,72.86
2018-10-06T05:03:35.903Z,72.83
2018-10-06T05:06:03.738Z,73.43
2018-10-06T05:08:32.435Z,73.63
2018-10-06T05:11:00.279Z,73.34
2018-10-06T05:13:28.252Z,73.27
2018-10-06T05:15:56.315Z,73.71
2018-10-06T05:18:24.107Z,73.57
2018-10-06T05:20:51.887Z,73.45
2018-10-06T05:23:19.743Z,73.11
2018-10-06T05:25:47.503Z,73.40
2018-10-06T05:28:15.461Z,73.43
2018-10-06T05:30:43.306Z,73.77
2018-10-06T05:33:11.102Z,73.77
2018-10-06T05:35:38.915Z,74.24
2018-10-06T05:38:06.844Z,74.29
2018-10-06T05:40:34.690Z,74.15
2018-10-06T05:43:02.632Z,74.65
2018-10-06T05:45:30.451Z,75.08
2018-10-06T05:47:58.264Z,73.97
2018-10-06T05:50:26.034Z,73.83
2018-10-06T05:52:53.869Z,73.99
2018-10-06T05:55:21.666Z,74.01
2018-10-06T05:57:49.475Z,74.06
2018-10-06T06:00:17.311Z,74.13
2018-10-06T06:02:45.415Z,73.78
2018-10-06T06:05:14.283Z,74.38
2018-10-06T06:07:43.435Z,74.04
2018-10-06T06:10:11.768Z,73.98
2018-10-06T06:12:39.931Z,74.08
2018-10-06T06:15:08.055Z,74.12
2018-10-06T06:17:36.284Z,74.03
2018-10-06T06:20:04.207Z,73.15
2018-10-06T06:22:35.931Z,73.37
2018-10-06T06:25:03.931Z,72.82
2018-10-06T06:27:31.787Z,73.01
2018-10-06T06:29:59.623Z,72.97
2018-10-06T06:32:27.458Z,72.63
2018-10-06T06:34:55.644Z,72.38
2018-10-06T06:37:23.667Z,71.48
2018-10-06T06:39:51.487Z,71.84
2018-10-06T06:42:19.311Z,71.17
2018-10-06T06:44:47.111Z,70.79
2018-10-06T06:47:14.890Z,69.87
2018-10-06T06:49:42.711Z,70.12
2018-10-06T06:52:10.565Z,68.91
2018-10-06T06:54:38.902Z,68.87
2018-10-06T06:57:07.356Z,67.79
2018-10-06T06:59:35.219Z,67.72
2018-10-06T07:02:03.455Z,67.52
2018-10-06T07:04:31.781Z,67.04
2018-10-06T07:06:59.627Z,65.81
2018-10-06T07:09:27.404Z,65.72
2018-10-06T07:11:55.250Z,65.57
2018-10-06T07:14:23.168Z,65.79
2018-10-06T07:16:51.040Z,65.67
2018-10-06T07:19:18.922Z,64.63
2018-10-06T07:21:46.842Z,64.26
2018-10-06T07:24:18.111Z,62.58
2018-10-06T07:26:46.071Z,62.29
2018-10-06T07:29:13.872Z,61.46
2018-10-06T07:31:41.700Z,61.70
2018-10-06T07:34:09.493Z,58.66
2018-10-06T07:36:37.641Z,58.21
2018-10-06T07:39:06.475Z,57.59
2018-10-06T07:41:34.263Z,56.76
2018-10-06T07:44:02.126Z,54.87
2018-10-06T07:46:29.968Z,52.07
2018-10-06T07:48:57.791Z,52.45
2018-10-06T07:51:25.670Z,52.56
2018-10-06T07:53:53.477Z,51.71
2018-10-06T07:56:21.707Z,53.06
2018-10-06T07:58:49.585Z,54.37
2018-10-06T08:01:17.447Z,54.57
2018-10-06T08:03:45.624Z,54.24
2018-10-06T08:06:13.486Z,52.58
2018-10-06T08:08:41.279Z,52.07
2018-10-06T08:11:09.107Z,51.05
2018-10-06T08:13:36.859Z,51.06
2018-10-06T08:16:04.682Z,49.33
2018-10-06T08:18:32.567Z,48.18
2018-10-06T08:21:00.359Z,47.39
2018-10-06T08:23:28.158Z,46.14
2018-10-06T08:25:55.975Z,47.47
2018-10-06T08:28:23.771Z,46.66
2018-10-06T08:30:51.563Z,47.98
2018-10-06T08:33:19.426Z,48.65
2018-10-06T08:35:47.215Z,44.97
2018-10-06T08:38:15.330Z,46.71
2018-10-06T08:40:43.091Z,46.92
2018-10-06T08:43:10.877Z,47.20
2018-10-06T08:45:38.727Z,47.96
2018-10-06T08:48:06.574Z,50.01
2018-10-06T08:50:35.407Z,49.81
2018-10-06T08:53:03.232Z,49.82
2018-10-06T08:55:31.108Z,49.45
2018-10-06T08:57:58.887Z,49.84
2018-10-06T09:00:26.691Z,49.04
2018-10-06T09:02:54.573Z,49.30
2018-10-06T09:05:23.504Z,49.32
2018-10-06T09:07:51.523Z,50.83
2018-10-06T09:10:19.293Z,50.35
2018-10-06T09:12:47.090Z,51.87
2018-10-06T09:15:14.959Z,52.85
2018-10-06T09:17:42.768Z,53.99
2018-10-06T09:20:14.589Z,54.26
2018-10-06T09:22:42.390Z,53.22
2018-10-06T09:25:10.239Z,53.12
2018-10-06T09:27:38.135Z,54.12
2018-10-06T09:30:06.155Z,54.50
2018-10-06T09:32:34.294Z,53.46
2018-10-06T09:35:02.140Z,52.18
2018-10-06T09:37:29.944Z,53.28
2018-10-06T09:39:57.895Z,53.96
2018-10-06T09:42:25.895Z,53.47
2018-10-06T09:44:53.740Z,52.60
2018-10-06T09:47:21.581Z,52.83
2018-10-06T09:49:49.483Z,52.23
2018-10-06T09:52:17.335Z,51.99
2018-10-06T09:54:45.157Z,51.30
2018-10-06T09:57:13.002Z,50.55
2018-10-06T09:59:40.824Z,49.79
2018-10-06T10:03:12.883Z,48.79
2018-10-06T10:05:49.558Z,49.48
2018-10-06T10:08:17.828Z,48.13
2018-10-06T10:10:46.573Z,47.30
2018-10-06T10:13:14.448Z,47.11
2018-10-06T10:15:42.247Z,47.19
2018-10-06T10:18:10.358Z,46.16
2018-10-06T10:20:38.134Z,45.05
2018-10-06T10:23:06.256Z,43.86
2018-10-06T10:25:34.061Z,44.54
2018-10-06T10:28:01.852Z,41.24
2018-10-06T10:30:29.730Z,40.62
2018-10-06T10:32:57.528Z,39.29
2018-10-06T10:35:25.575Z,39.49
2018-10-06T10:37:53.518Z,39.88
2018-10-06T10:40:21.474Z,38.35
2018-10-06T10:42:49.299Z,36.86
2018-10-06T10:45:22.452Z,36.08
2018-10-06T10:47:50.336Z,38.15
2018-10-06T10:50:18.227Z,37.62
2018-10-06T10:52:46.728Z,37.68
2018-10-06T10:55:14.580Z,37.32
2018-10-06T10:57:42.507Z,38.58
2018-10-06T11:00:10.558Z,37.18
2018-10-06T11:02:38.371Z,38.43
2018-10-06T11:05:07.305Z,36.50
2018-10-06T11:07:35.084Z,36.32
2018-10-06T11:10:03.328Z,37.14
2018-10-06T11:12:31.209Z,37.20
2018-10-06T11:15:02.384Z,36.43
2018-10-06T11:17:30.188Z,36.35
2018-10-06T11:19:58.302Z,36.74
2018-10-06T11:22:26.143Z,34.22
2018-10-06T11:24:53.979Z,37.12
2018-10-06T11:27:21.746Z,36.52
2018-10-06T11:29:49.593Z,35.25
2018-10-06T11:32:17.434Z,35.19
2018-10-06T11:34:45.327Z,36.16
2018-10-06T11:37:13.147Z,35.02
2018-10-06T11:39:41.241Z,33.01
2018-10-06T11:42:09.047Z,34.64
2018-10-06T11:44:37.071Z,32.92
2018-10-06T11:47:04.920Z,33.28
2018-10-06T11:49:32.771Z,33.79
2018-10-06T11:52:00.719Z,35.18
2018-10-06T11:54:28.607Z,34.89
2018-10-06T11:56:56.563Z,34.82
2018-10-06T11:59:24.452Z,35.52
2018-10-06T12:01:52.419Z,34.01
2018-10-06T12:04:20.308Z,36.03
2018-10-06T12:06:48.219Z,34.20
2018-10-06T12:09:16.171Z,33.81
2018-10-06T12:11:44.015Z,33.98
2018-10-06T12:14:11.851Z,35.07
2018-10-06T12:16:43.251Z,35.01
2018-10-06T12:19:11.023Z,34.66
2018-10-06T12:21:38.915Z,34.78
2018-10-06T12:24:06.857Z,34.29
2018-10-06T12:26:34.764Z,34.46
2018-10-06T12:29:02.915Z,34.77
2018-10-06T12:31:30.687Z,35.20
2018-10-06T12:33:58.529Z,34.68
2018-10-06T12:36:26.351Z,35.61
2018-10-06T12:38:54.135Z,36.27
2018-10-06T12:41:22.523Z,34.93
2018-10-06T12:43:50.314Z,35.26
2018-10-06T12:46:18.118Z,34.92
2018-10-06T12:48:45.916Z,35.00
2018-10-06T12:51:13.932Z,36.34
2018-10-06T12:53:41.718Z,35.21
2018-10-06T12:56:09.794Z,35.03
2018-10-06T12:58:37.795Z,36.87
2018-10-06T13:01:06.170Z,36.51
2018-10-06T13:03:34.211Z,36.33
2018-10-06T13:06:02.225Z,35.91
2018-10-06T13:08:30.016Z,35.65
2018-10-06T13:10:57.860Z,34.93
2018-10-06T13:13:25.726Z,35.21
2018-10-06T13:15:53.524Z,34.22
2018-10-06T13:18:21.379Z,34.50
2018-10-06T13:20:49.210Z,33.92
2018-10-06T13:23:20.235Z,34.42
2018-10-06T13:25:48.022Z,36.15
2018-10-06T13:28:16.996Z,35.99
2018-10-06T13:30:44.783Z,33.10
2018-10-06T13:33:12.541Z,32.04
2018-10-06T13:35:40.361Z,32.44
2018-10-06T13:38:08.198Z,32.37
2018-10-06T13:40:36.219Z,31.76
2018-10-06T13:43:04.093Z,31.50
2018-10-06T13:45:31.928Z,31.43
2018-10-06T13:47:59.837Z,31.65
2018-10-06T13:50:27.707Z,31.26
2018-10-06T13:52:55.506Z,31.11
2018-10-06T13:55:23.587Z,31.18
2018-10-06T13:57:51.607Z,30.45
2018-10-06T14:00:19.474Z,30.73
2018-10-06T14:02:47.343Z,30.96
2018-10-06T14:05:15.155Z,30.89
2018-10-06T14:07:42.957Z,32.63
2018-10-06T14:10:10.878Z,33.34
2018-10-06T14:12:38.658Z,33.21
2018-10-06T14:15:06.584Z,33.53
2018-10-06T14:17:34.398Z,33.17
2018-10-06T14:20:02.234Z,34.38
2018-10-06T14:22:30.035Z,33.73
2018-10-06T14:24:58.207Z,35.38
2018-10-06T14:27:26.080Z,35.72
2018-10-06T14:29:53.839Z,35.69
2018-10-06T14:32:25.369Z,36.14
2018-10-06T14:34:53.159Z,35.04
2018-10-06T14:37:21.109Z,36.14
2018-10-06T14:39:48.931Z,36.67
2018-10-06T14:42:16.750Z,36.25
2018-10-06T14:44:44.587Z,37.18
2018-10-06T14:47:12.635Z,38.48
2018-10-06T14:49:40.384Z,37.18
2018-10-06T14:52:08.224Z,38.59
2018-10-06T14:54:36.262Z,37.49
2018-10-06T14:57:04.081Z,37.83
2018-10-06T14:59:31.929Z,38.33
2018-10-06T15:01:59.713Z,38.20
2018-10-06T15:04:27.571Z,38.25
2018-10-06T15:06:55.374Z,38.24
2018-10-06T15:09:23.190Z,38.17
2018-10-06T15:11:51.093Z,37.89
2018-10-06T15:14:18.885Z,38.70
2018-10-06T15:16:46.709Z,37.64
2018-10-06T15:19:14.771Z,39.79
2018-10-06T15:21:42.596Z,39.29
2018-10-06T15:24:10.419Z,38.32
2018-10-06T15:26:38.459Z,38.74
2018-10-06T15:29:06.258Z,40.18
2018-10-06T15:31:34.104Z,40.83
2018-10-06T15:34:02.122Z,39.10
2018-10-06T15:36:36.777Z,39.63
2018-10-06T15:39:07.086Z,40.22
2018-10-06T15:41:34.915Z,39.93
2018-10-06T15:44:02.800Z,40.05
2018-10-06T15:46:30.742Z,40.51
2018-10-06T15:48:58.522Z,40.47
2018-10-06T15:51:26.391Z,39.52
2018-10-06T15:53:54.459Z,40.48
2018-10-06T15:56:22.262Z,39.98
2018-10-06T15:58:50.175Z,41.37
2018-10-06T16:01:18.019Z,40.71
2018-10-06T16:03:45.954Z,41.83
2018-10-06T16:06:13.959Z,41.97
2018-10-06T16:08:41.853Z,42.54
2018-10-06T16:11:09.619Z,42.71
2018-10-06T16:13:37.416Z,43.74
2018-10-06T16:16:05.267Z,43.66
2018-10-06T16:18:33.064Z,42.64
2018-10-06T16:21:01.187Z,42.95
2018-10-06T16:23:34.883Z,44.29
2018-10-06T16:26:02.802Z,44.20
2018-10-06T16:28:30.687Z,44.38
2018-10-06T16:30:59.197Z,45.07
2018-10-06T16:33:27.266Z,45.96
2018-10-06T16:35:55.128Z,46.27
2018-10-06T16:38:23.707Z,45.38
2018-10-06T16:40:52.403Z,44.41
2018-10-06T16:43:20.863Z,46.21
2018-10-06T16:45:49.765Z,46.10
2018-10-06T16:48:19.000Z,47.43
2018-10-06T16:50:47.454Z,47.37
2018-10-06T16:53:15.320Z,48.15
2018-10-06T16:55:44.022Z,48.16
2018-10-06T16:58:13.042Z,49.00
2018-10-06T17:00:42.600Z,50.53
2018-10-06T17:03:12.170Z,49.99
2018-10-06T17:05:40.828Z,51.05
2018-10-06T17:08:08.735Z,50.27
2018-10-06T17:10:36.662Z,50.63
2018-10-06T17:13:05.195Z,51.06
2018-10-06T17:15:33.635Z,50.96
2018-10-06T17:18:02.939Z,51.40
2018-10-06T17:20:32.653Z,51.39
2018-10-06T17:23:01.642Z,51.71
2018-10-06T17:25:33.260Z,51.57
2018-10-06T17:28:01.232Z,52.13
2018-10-06T17:30:29.176Z,51.14
2018-10-06T17:32:56.951Z,51.73
2018-10-06T17:35:24.827Z,52.07
2018-10-06T17:37:52.595Z,51.12
2018-10-06T17:40:20.815Z,51.41
2018-10-06T17:42:48.616Z,51.88
2018-10-06T17:45:16.419Z,51.84
2018-10-06T17:47:44.617Z,51.47
2018-10-06T17:50:12.665Z,51.37
2018-10-06T17:52:40.562Z,51.54
2018-10-06T17:55:08.491Z,51.65
2018-10-06T17:57:36.600Z,51.50
2018-10-06T18:00:05.626Z,52.15
2018-10-06T18:02:33.570Z,51.57
2018-10-06T18:05:01.381Z,51.51
2018-10-06T18:07:29.358Z,51.74
2018-10-06T18:09:57.197Z,52.71
2018-10-06T18:12:25.099Z,52.09
2018-10-06T18:14:52.982Z,51.83
2018-10-06T18:17:20.801Z,52.60
2018-10-06T18:19:48.707Z,52.96
2018-10-06T18:22:16.592Z,51.62
2018-10-06T18:24:44.443Z,52.37
2018-10-06T18:27:12.450Z,52.48
2018-10-06T18:29:40.273Z,52.54
2018-10-06T18:32:08.507Z,52.79
2018-10-06T18:34:36.335Z,52.00
2018-10-06T18:37:04.172Z,52.33
2018-10-06T18:39:32.286Z,52.09
2018-10-06T18:42:00.293Z,52.23
2018-10-06T18:44:28.302Z,52.54
2018-10-06T18:46:59.900Z,53.06
2018-10-06T18:49:27.852Z,52.32
2018-10-06T18:51:55.796Z,52.24
2018-10-06T18:54:23.614Z,52.47
2018-10-06T18:56:51.427Z,53.11
2018-10-06T18:59:19.405Z,53.01
2018-10-06T19:01:47.311Z,52.38
2018-10-06T19:04:15.428Z,52.92
2018-10-06T19:06:43.290Z,52.08
2018-10-06T19:09:11.094Z,52.91
2018-10-06T19:11:38.879Z,53.25
2018-10-06T19:14:06.919Z,53.54
2018-10-06T19:16:34.783Z,53.03
2018-10-06T19:19:02.627Z,53.48
2018-10-06T19:21:30.421Z,53.63
2018-10-06T19:23:58.290Z,53.28
2018-10-06T19:26:26.119Z,53.99
2018-10-06T19:28:53.942Z,53.88
2018-10-06T19:31:21.827Z,53.62
2018-10-06T19:33:49.695Z,53.52
2018-10-06T19:36:17.487Z,53.22
2018-10-06T19:38:45.383Z,53.60
2018-10-06T19:41:13.364Z,54.19
2018-10-06T19:43:41.351Z,53.69
2018-10-06T19:46:09.259Z,54.24
2018-10-06T19:48:37.147Z,54.38
2018-10-06T19:51:05.067Z,54.98
2018-10-06T19:53:33.310Z,55.31
2018-10-06T19:56:01.208Z,55.21
2018-10-06T19:58:29.114Z,55.08
2018-10-06T20:00:57.003Z,54.71
2018-10-06T20:03:24.819Z,55.89
2018-10-06T20:05:52.693Z,55.38
2018-10-06T20:08:20.513Z,56.05
2018-10-06T20:11:02.960Z,56.21
2018-10-06T20:14:21.885Z,55.93
2018-10-06T20:16:58.443Z,56.52
2018-10-06T20:22:47.100Z,57.12
2018-10-06T20:25:20.638Z,56.52
2018-10-06T20:27:48.533Z,57.14
2018-10-06T20:30:16.316Z,56.65
2018-10-06T20:32:44.213Z,56.20
2018-10-06T20:35:12.014Z,56.84
2018-10-06T20:37:39.971Z,56.55
2018-10-06T20:40:08.126Z,56.41
2018-10-06T20:42:35.945Z,56.71
2018-10-06T20:45:03.816Z,56.98
2018-10-06T20:47:31.998Z,56.71
2018-10-06T20:49:59.954Z,57.11
2018-10-06T20:52:27.810Z,57.50
2018-10-06T20:54:55.695Z,56.42
2018-10-06T20:57:23.537Z,56.73
2018-10-06T20:59:51.351Z,57.41
2018-10-06T21:02:19.175Z,56.62
2018-10-06T21:04:47.053Z,56.76
2018-10-06T21:07:14.891Z,57.74
2018-10-06T21:09:42.786Z,56.65
2018-10-06T21:12:10.771Z,57.64
2018-10-06T21:14:38.592Z,57.11
2018-10-06T21:17:06.954Z,57.12
2018-10-06T21:19:34.798Z,57.36
2018-10-06T21:22:02.747Z,57.86
2018-10-06T21:24:30.591Z,57.76
2018-10-06T21:27:02.172Z,58.18
2018-10-06T21:29:30.321Z,57.69
2018-10-06T21:31:57.993Z,57.59
2018-10-06T21:34:25.879Z,58.84
2018-10-06T21:36:53.707Z,58.75
2018-10-06T21:39:21.552Z,59.71
2018-10-06T21:41:49.364Z,59.27
2018-10-06T21:44:17.157Z,60.00
2018-10-06T21:46:44.951Z,60.20
2018-10-06T21:49:12.734Z,60.43
2018-10-06T21:51:40.527Z,59.84
2018-10-06T21:54:08.360Z,60.18
2018-10-06T21:56:36.225Z,60.32
2018-10-06T21:59:04.487Z,60.71
2018-10-06T22:01:35.125Z,60.68
2018-10-06T22:04:03.090Z,60.61
2018-10-06T22:06:30.928Z,60.02
2018-10-06T22:08:58.745Z,60.58
2018-10-06T22:11:26.625Z,60.16
2018-10-06T22:13:54.466Z,61.07
2018-10-06T22:16:23.367Z,60.57
2018-10-06T22:18:51.157Z,61.68
2018-10-06T22:21:19.204Z,61.33
2018-10-06T22:23:46.962Z,61.24
2018-10-06T22:26:14.752Z,61.10
2018-10-06T22:28:46.390Z,61.64
2018-10-06T22:31:14.245Z,62.25
2018-10-06T22:33:42.045Z,61.72
2018-10-06T22:36:10.135Z,62.12
2018-10-06T22:38:38.544Z,62.28
2018-10-06T22:41:06.382Z,62.80
2018-10-06T22:43:34.190Z,62.74
2018-10-06T22:46:02.123Z,62.64
2018-10-06T22:48:29.919Z,63.62
2018-10-06T22:50:57.719Z,62.91
2018-10-06T22:53:25.711Z,62.83
2018-10-06T22:55:53.492Z,63.05
2018-10-06T22:58:21.298Z,62.70
2018-10-06T23:00:49.127Z,62.90
2018-10-06T23:03:17.037Z,63.37
2018-10-06T23:05:44.747Z,63.60
2018-10-06T23:08:12.577Z,63.88
2018-10-06T23:10:40.505Z,64.77
2018-10-06T23:13:08.292Z,63.71
2018-10-06T23:15:36.108Z,64.66
2018-10-06T23:18:03.928Z,64.44
2018-10-06T23:20:31.727Z,63.98
2018-10-06T23:22:59.505Z,64.47
2018-10-06T23:25:27.291Z,63.51
2018-10-06T23:27:55.048Z,63.88
2018-10-06T23:30:22.939Z,64.37
2018-10-06T23:32:53.831Z,64.55
2018-10-06T23:35:21.596Z,64.50
2018-10-06T23:37:49.410Z,64.66
2018-10-06T23:40:17.235Z,64.78
2018-10-06T23:42:45.256Z,64.23
2018-10-06T23:45:13.014Z,65.07
2018-10-06T23:47:40.824Z,64.69
2018-10-06T23:50:08.659Z,65.20
2018-10-06T23:52:36.466Z,65.24
2018-10-06T23:55:04.269Z,64.59
2018-10-06T23:57:32.089Z,64.68
2018-10-06T23:59:59.895Z,64.64
